createdAt,value
2023-02-13T00:00:20.372Z,4.03
2023-02-13T00:03:07.073Z,4.04
2023-02-13T00:05:33.984Z,4.05
2023-02-13T00:08:00.764Z,4.05
2023-02-13T00:10:27.549Z,4.07
2023-02-13T00:12:54.414Z,4.08
2023-02-13T00:15:21.346Z,4.09
2023-02-13T00:17:48.284Z,4.10
2023-02-13T00:20:15.092Z,4.11
2023-02-13T00:22:41.757Z,4.10
2023-02-13T00:25:08.762Z,4.11
2023-02-13T00:27:35.579Z,4.12
2023-02-13T00:30:04.027Z,4.13
2023-02-13T00:32:31.256Z,4.13
2023-02-13T00:34:57.962Z,4.14
2023-02-13T00:37:25.428Z,4.14
2023-02-13T00:39:52.540Z,4.14
2023-02-13T00:42:23.427Z,4.16
2023-02-13T00:44:50.091Z,4.16
2023-02-13T00:47:17.171Z,4.17
2023-02-13T00:49:43.912Z,4.16
2023-02-13T00:52:10.664Z,4.09
2023-02-13T00:54:37.551Z,4.18
2023-02-13T00:57:06.368Z,4.18
2023-02-13T00:59:32.996Z,4.19
2023-02-13T01:02:00.490Z,4.19
2023-02-13T01:04:27.292Z,4.20
2023-02-13T01:06:55.607Z,4.20
2023-02-13T01:09:22.277Z,4.20
2023-02-13T01:11:49.367Z,4.21
2023-02-13T01:14:15.982Z,4.13
2023-02-13T01:16:42.739Z,4.21
2023-02-13T01:19:09.624Z,4.22
2023-02-13T01:21:36.241Z,4.21
2023-02-13T01:24:04.809Z,4.21
2023-02-13T01:26:31.645Z,4.21
2023-02-13T01:28:58.391Z,4.20
2023-02-13T01:31:25.856Z,4.13
2023-02-13T01:33:57.432Z,4.21
2023-02-13T01:36:24.441Z,4.21
2023-02-13T01:38:58.212Z,4.18
2023-02-13T01:41:26.991Z,4.22
2023-02-13T01:43:56.521Z,4.21
2023-02-13T01:46:33.027Z,4.21
2023-02-13T01:49:13.209Z,4.21
2023-02-13T01:51:40.448Z,4.21
2023-02-13T01:54:12.418Z,4.21
2023-02-13T01:56:56.525Z,4.22
2023-02-13T01:59:36.633Z,4.22
2023-02-13T02:02:03.678Z,4.23
2023-02-13T02:04:35.439Z,4.15
2023-02-13T02:07:18.389Z,4.23
2023-02-13T02:09:47.588Z,4.24
2023-02-13T02:12:31.601Z,4.23
2023-02-13T02:15:00.803Z,4.24
2023-02-13T02:17:30.343Z,4.25
2023-02-13T02:20:15.197Z,4.25
2023-02-13T02:23:19.446Z,4.25
2023-02-13T02:25:55.527Z,4.25
2023-02-13T02:28:37.016Z,4.26
2023-02-13T02:31:13.546Z,4.26
2023-02-13T02:34:03.578Z,4.26
2023-02-13T02:36:45.423Z,4.27
2023-02-13T02:39:37.001Z,4.27
2023-02-13T02:42:25.690Z,4.27
2023-02-13T02:45:27.779Z,4.28
2023-02-13T02:48:34.792Z,4.28
2023-02-13T02:51:23.088Z,4.26
2023-02-13T02:54:32.010Z,4.29
2023-02-13T02:57:09.996Z,4.29
2023-02-13T02:59:59.112Z,4.30
2023-02-13T03:02:46.614Z,4.30
2023-02-13T03:05:48.133Z,4.22
2023-02-13T03:08:36.167Z,4.31
2023-02-13T03:11:21.761Z,4.30
2023-02-13T03:13:49.466Z,4.32
2023-02-13T03:16:40.456Z,4.32
2023-02-13T03:19:35.750Z,4.33
2023-02-13T03:22:18.421Z,4.34
2023-02-13T03:25:00.375Z,4.34
2023-02-13T03:28:17.308Z,4.34
2023-02-13T03:31:05.955Z,4.36
2023-02-13T03:33:52.267Z,4.36
2023-02-13T03:37:07.531Z,4.36
2023-02-13T03:39:59.755Z,4.37
2023-02-13T03:42:30.739Z,4.38
2023-02-13T03:45:22.079Z,4.38
2023-02-13T03:47:53.571Z,4.39
2023-02-13T03:50:21.391Z,4.40
2023-02-13T03:52:54.968Z,4.40
2023-02-13T03:55:44.719Z,4.42
2023-02-13T03:58:35.352Z,4.42
2023-02-13T04:01:07.468Z,4.43
2023-02-13T04:03:52.983Z,4.44
2023-02-13T04:06:26.248Z,4.45
2023-02-13T04:08:52.994Z,4.45
2023-02-13T04:11:42.540Z,4.45
2023-02-13T04:14:20.648Z,4.47
2023-02-13T04:16:56.394Z,4.48
2023-02-13T04:19:26.140Z,4.49
2023-02-13T04:21:58.853Z,4.49
2023-02-13T04:24:26.729Z,4.51
2023-02-13T04:26:54.388Z,4.48
2023-02-13T04:29:23.484Z,4.51
2023-02-13T04:31:50.667Z,4.51
2023-02-13T04:34:17.539Z,4.52
2023-02-13T04:36:44.557Z,4.53
2023-02-13T04:39:11.521Z,4.53
2023-02-13T04:41:38.278Z,4.53
2023-02-13T04:44:05.100Z,4.53
2023-02-13T04:46:31.860Z,4.54
2023-02-13T04:48:58.543Z,4.54
2023-02-13T04:51:25.603Z,4.54
2023-02-13T04:53:52.475Z,4.54
2023-02-13T04:56:20.040Z,4.54
2023-02-13T04:58:46.741Z,4.54
2023-02-13T05:01:15.136Z,4.54
2023-02-13T05:03:42.216Z,4.54
2023-02-13T05:06:09.156Z,4.54
2023-02-13T05:08:35.988Z,4.54
2023-02-13T05:11:02.642Z,4.54
2023-02-13T05:13:29.442Z,4.54
2023-02-13T05:15:56.356Z,4.53
2023-02-13T05:18:23.041Z,4.54
2023-02-13T05:21:09.874Z,4.54
2023-02-13T05:23:36.926Z,4.54
2023-02-13T05:26:03.653Z,4.55
2023-02-13T05:28:48.933Z,4.54
2023-02-13T05:31:15.858Z,4.54
2023-02-13T05:33:42.725Z,4.54
2023-02-13T05:36:09.427Z,4.54
2023-02-13T05:38:36.248Z,4.54
2023-02-13T05:41:02.943Z,4.54
2023-02-13T05:43:29.992Z,4.54
2023-02-13T05:46:07.835Z,4.54
2023-02-13T05:48:35.396Z,4.55
2023-02-13T05:51:02.355Z,4.54
2023-02-13T05:53:29.253Z,4.54
2023-02-13T05:55:56.229Z,4.54
2023-02-13T05:58:23.243Z,4.55
2023-02-13T06:00:50.062Z,4.55
2023-02-13T06:03:16.862Z,4.55
2023-02-13T06:05:43.839Z,4.55
2023-02-13T06:08:10.695Z,4.54
2023-02-13T06:10:37.406Z,4.54
2023-02-13T06:13:04.082Z,4.54
2023-02-13T06:15:30.705Z,4.54
2023-02-13T06:17:57.362Z,4.54
2023-02-13T06:20:24.262Z,4.54
2023-02-13T06:22:51.822Z,4.54
2023-02-13T06:25:19.511Z,4.55
2023-02-13T06:27:46.346Z,4.55
2023-02-13T06:30:14.033Z,4.54
2023-02-13T06:32:40.682Z,4.55
2023-02-13T06:35:09.684Z,4.55
2023-02-13T06:37:36.409Z,4.55
2023-02-13T06:40:03.273Z,4.55
2023-02-13T06:42:29.885Z,4.55
2023-02-13T06:44:56.417Z,4.57
2023-02-13T06:47:23.146Z,4.57
2023-02-13T06:49:49.892Z,4.57
2023-02-13T06:52:16.507Z,4.57
2023-02-13T06:54:47.795Z,4.57
2023-02-13T06:57:15.752Z,4.57
2023-02-13T06:59:43.071Z,4.58
2023-02-13T07:02:11.684Z,4.58
2023-02-13T07:04:39.076Z,4.58
2023-02-13T07:07:05.984Z,4.59
2023-02-13T07:09:33.278Z,4.60
2023-02-13T07:12:08.831Z,4.59
2023-02-13T07:14:35.617Z,4.63
2023-02-13T07:17:02.358Z,4.64
2023-02-13T07:19:28.982Z,4.66
2023-02-13T07:21:55.696Z,4.67
2023-02-13T07:24:22.475Z,4.68
2023-02-13T07:26:49.410Z,4.60
2023-02-13T07:29:16.803Z,4.68
2023-02-13T07:31:43.623Z,4.69
2023-02-13T07:34:10.563Z,4.69
2023-02-13T07:36:37.347Z,4.70
2023-02-13T07:39:03.999Z,4.70
2023-02-13T07:41:30.635Z,4.70
2023-02-13T07:43:57.439Z,4.70
2023-02-13T07:46:24.220Z,4.71
2023-02-13T07:48:54.022Z,4.72
2023-02-13T07:51:24.645Z,4.73
2023-02-13T07:53:52.288Z,4.74
2023-02-13T07:56:19.045Z,4.77
2023-02-13T07:58:45.911Z,4.80
2023-02-13T08:01:15.236Z,4.82
2023-02-13T08:03:42.663Z,4.84
2023-02-13T08:06:09.742Z,4.86
2023-02-13T08:08:37.826Z,4.88
2023-02-13T08:11:26.859Z,4.90
2023-02-13T08:13:53.708Z,4.93
2023-02-13T08:16:20.314Z,4.96
2023-02-13T08:18:47.213Z,4.98
2023-02-13T08:21:14.742Z,5.01
2023-02-13T08:23:41.445Z,5.04
2023-02-13T08:26:08.248Z,5.07
2023-02-13T08:28:36.298Z,5.10
2023-02-13T08:31:11.840Z,5.14
2023-02-13T08:33:40.789Z,5.24
2023-02-13T08:36:07.929Z,5.36
2023-02-13T08:38:34.685Z,5.49
2023-02-13T08:41:01.547Z,5.62
2023-02-13T08:43:28.113Z,5.75
2023-02-13T08:45:59.359Z,5.87
2023-02-13T08:48:27.359Z,6.00
2023-02-13T08:50:54.003Z,6.11
2023-02-13T08:53:21.066Z,6.18
2023-02-13T08:55:56.705Z,6.19
2023-02-13T08:58:23.869Z,6.18
2023-02-13T09:00:50.704Z,6.16
2023-02-13T09:03:17.603Z,6.16
2023-02-13T09:05:44.777Z,6.16
2023-02-13T09:08:13.123Z,6.16
2023-02-13T09:10:43.148Z,6.21
2023-02-13T09:13:10.090Z,6.25
2023-02-13T09:15:41.056Z,6.27
2023-02-13T09:18:07.859Z,6.23
2023-02-13T09:20:36.021Z,6.27
2023-02-13T09:23:03.173Z,6.26
2023-02-13T09:25:29.951Z,6.25
2023-02-13T09:27:56.704Z,6.29
2023-02-13T09:30:23.586Z,6.25
2023-02-13T09:32:52.310Z,6.32
2023-02-13T09:35:20.156Z,6.32
2023-02-13T09:37:47.219Z,6.31
2023-02-13T09:40:32.562Z,6.22
2023-02-13T09:43:31.050Z,6.28
2023-02-13T09:46:26.582Z,6.24
2023-02-13T09:48:56.225Z,6.19
2023-02-13T09:51:25.287Z,6.15
2023-02-13T09:53:59.871Z,6.13
2023-02-13T09:56:49.522Z,6.10
2023-02-13T09:59:31.792Z,6.07
2023-02-13T10:02:11.451Z,6.04
2023-02-13T10:05:16.682Z,6.02
2023-02-13T10:08:06.224Z,5.92
2023-02-13T10:10:52.900Z,5.98
2023-02-13T10:13:44.800Z,5.99
2023-02-13T10:16:17.862Z,6.00
2023-02-13T10:19:03.802Z,6.02
2023-02-13T10:21:38.792Z,6.04
2023-02-13T10:24:25.599Z,6.05
2023-02-13T10:26:57.170Z,6.05
2023-02-13T10:30:06.589Z,6.04
2023-02-13T10:33:27.480Z,6.02
2023-02-13T10:36:09.977Z,5.99
2023-02-13T10:38:58.469Z,5.97
2023-02-13T10:41:52.725Z,5.96
2023-02-13T10:44:36.948Z,5.94
2023-02-13T10:47:40.931Z,5.94
2023-02-13T10:50:29.312Z,5.91
2023-02-13T10:53:21.118Z,5.90
2023-02-13T10:56:09.540Z,5.89
2023-02-13T10:59:02.791Z,5.88
2023-02-13T11:02:01.762Z,5.85
2023-02-13T11:04:29.627Z,5.90
2023-02-13T11:07:02.677Z,5.91
2023-02-13T11:09:37.764Z,5.92
2023-02-13T11:12:25.515Z,5.92
2023-02-13T11:15:05.283Z,5.93
2023-02-13T11:17:36.456Z,5.92
2023-02-13T11:20:26.239Z,5.92
2023-02-13T11:22:54.933Z,5.92
2023-02-13T11:25:29.482Z,5.92
2023-02-13T11:28:17.125Z,5.92
2023-02-13T11:30:43.928Z,5.93
2023-02-13T11:33:16.581Z,5.95
2023-02-13T11:35:46.090Z,5.96
2023-02-13T11:38:22.295Z,5.97
2023-02-13T11:41:05.785Z,5.99
2023-02-13T11:44:01.918Z,5.99
2023-02-13T11:46:31.495Z,5.92
2023-02-13T11:49:34.320Z,5.99
2023-02-13T11:52:29.623Z,5.98
2023-02-13T11:55:43.966Z,5.99
2023-02-13T11:58:14.670Z,5.99
2023-02-13T12:00:49.542Z,5.99
2023-02-13T12:03:29.018Z,5.97
2023-02-13T12:06:15.573Z,5.92
2023-02-13T12:08:45.596Z,6.01
2023-02-13T12:11:33.836Z,6.03
2023-02-13T12:14:00.711Z,6.04
2023-02-13T12:16:37.979Z,6.06
2023-02-13T12:19:11.534Z,6.07
2023-02-13T12:22:01.546Z,6.08
2023-02-13T12:24:46.768Z,6.08
2023-02-13T12:27:44.317Z,6.10
2023-02-13T12:30:41.865Z,6.11
2023-02-13T12:33:16.243Z,6.12
2023-02-13T12:35:46.071Z,6.14
2023-02-13T12:38:24.913Z,6.19
2023-02-13T12:41:01.297Z,6.24
2023-02-13T12:43:43.229Z,6.30
2023-02-13T12:46:10.263Z,6.35
2023-02-13T12:48:59.194Z,6.42
2023-02-13T12:51:41.862Z,6.51
2023-02-13T12:54:30.133Z,6.61
2023-02-13T12:57:03.083Z,6.69
2023-02-13T12:59:32.603Z,6.74
2023-02-13T13:02:31.307Z,6.77
2023-02-13T13:05:13.790Z,6.80
2023-02-13T13:07:53.736Z,6.82
2023-02-13T13:10:35.354Z,6.82
2023-02-13T13:13:14.938Z,6.80
2023-02-13T13:16:02.230Z,6.77
2023-02-13T13:18:41.021Z,6.75
2023-02-13T13:21:54.939Z,6.71
2023-02-13T13:24:51.092Z,6.67
2023-02-13T13:27:31.556Z,6.64
2023-02-13T13:30:03.399Z,6.60
2023-02-13T13:32:32.365Z,6.58
2023-02-13T13:34:59.477Z,6.55
2023-02-13T13:37:39.944Z,6.53
2023-02-13T13:40:25.209Z,6.52
2023-02-13T13:43:03.195Z,6.50
2023-02-13T13:45:44.846Z,6.49
2023-02-13T13:48:54.433Z,6.46
2023-02-13T13:51:22.053Z,6.44
2023-02-13T13:54:01.253Z,6.43
2023-02-13T13:57:07.611Z,6.42
2023-02-13T13:59:57.898Z,6.26
2023-02-13T14:02:41.403Z,6.39
2023-02-13T14:05:24.542Z,6.39
2023-02-13T14:08:01.670Z,6.38
2023-02-13T14:10:29.878Z,6.38
2023-02-13T14:12:56.863Z,6.39
2023-02-13T14:15:39.006Z,6.33
2023-02-13T14:18:19.912Z,6.39
2023-02-13T14:20:49.296Z,6.39
2023-02-13T14:23:26.808Z,6.38
2023-02-13T14:26:32.921Z,6.37
2023-02-13T14:29:20.105Z,6.35
2023-02-13T14:32:00.524Z,6.33
2023-02-13T14:34:39.034Z,6.31
2023-02-13T14:37:20.069Z,6.29
2023-02-13T14:40:10.506Z,6.28
2023-02-13T14:42:39.785Z,6.25
2023-02-13T14:45:16.212Z,6.25
2023-02-13T14:48:07.829Z,6.24
2023-02-13T14:50:45.409Z,6.24
2023-02-13T14:53:23.877Z,6.23
2023-02-13T14:56:18.267Z,6.22
2023-02-13T14:58:55.869Z,6.14
2023-02-13T15:01:33.874Z,6.21
2023-02-13T15:04:12.227Z,6.21
2023-02-13T15:06:43.340Z,6.20
2023-02-13T15:09:35.722Z,6.20
2023-02-13T15:12:02.791Z,6.11
2023-02-13T15:14:36.425Z,6.17
2023-02-13T15:17:24.344Z,6.16
2023-02-13T15:19:54.109Z,6.14
2023-02-13T15:22:44.932Z,6.12
2023-02-13T15:25:25.825Z,6.04
2023-02-13T15:27:53.967Z,6.10
2023-02-13T15:30:25.113Z,6.09
2023-02-13T15:32:57.798Z,6.07
2023-02-13T15:35:26.682Z,6.05
2023-02-13T15:37:54.315Z,6.04
2023-02-13T15:40:32.588Z,5.99
2023-02-13T15:43:00.972Z,6.01
2023-02-13T15:45:29.663Z,6.00
2023-02-13T15:47:56.884Z,5.99
2023-02-13T15:50:30.417Z,5.98
2023-02-13T15:52:59.464Z,5.96
2023-02-13T15:55:29.405Z,5.95
2023-02-13T15:57:58.603Z,5.92
2023-02-13T16:00:38.961Z,5.92
2023-02-13T16:03:12.301Z,5.91
2023-02-13T16:05:42.409Z,5.89
2023-02-13T16:08:31.362Z,5.89
2023-02-13T16:11:16.933Z,5.87
2023-02-13T16:14:02.270Z,5.86
2023-02-13T16:16:34.334Z,5.84
2023-02-13T16:19:01.263Z,5.84
2023-02-13T16:21:30.822Z,5.83
2023-02-13T16:24:06.117Z,5.82
2023-02-13T16:26:35.793Z,5.81
2023-02-13T16:29:07.370Z,5.67
2023-02-13T16:31:34.181Z,5.77
2023-02-13T16:34:13.691Z,5.78
2023-02-13T16:36:40.442Z,5.77
2023-02-13T16:39:18.265Z,5.77
2023-02-13T16:41:45.309Z,5.76
2023-02-13T16:44:41.710Z,5.74
2023-02-13T16:47:21.571Z,5.73
2023-02-13T16:49:54.586Z,5.72
2023-02-13T16:52:25.866Z,5.71
2023-02-13T16:54:56.571Z,5.70
2023-02-13T16:57:25.794Z,5.70
2023-02-13T16:59:57.034Z,5.70
2023-02-13T17:02:39.449Z,5.69
2023-02-13T17:05:09.311Z,5.68
2023-02-13T17:07:43.442Z,5.67
2023-02-13T17:10:30.615Z,5.66
2023-02-13T17:13:00.963Z,5.66
2023-02-13T17:15:30.615Z,5.66
2023-02-13T17:17:58.184Z,5.65
2023-02-13T17:20:27.952Z,5.65
2023-02-13T17:22:57.471Z,5.64
2023-02-13T17:25:28.039Z,5.65
2023-02-13T17:27:57.248Z,5.64
2023-02-13T17:30:26.447Z,5.63
2023-02-13T17:33:07.653Z,5.64
2023-02-13T17:35:34.865Z,5.63
2023-02-13T17:38:02.745Z,5.63
2023-02-13T17:40:31.446Z,5.62
2023-02-13T17:42:59.335Z,5.61
2023-02-13T17:45:29.080Z,5.61
2023-02-13T17:47:58.839Z,5.61
2023-02-13T17:50:37.229Z,5.60
2023-02-13T17:53:26.030Z,5.59
2023-02-13T17:55:53.493Z,5.58
2023-02-13T17:58:20.765Z,5.58
2023-02-13T18:00:47.790Z,5.57
2023-02-13T18:03:22.827Z,5.48
2023-02-13T18:05:59.896Z,5.56
2023-02-13T18:08:26.811Z,5.55
2023-02-13T18:10:53.570Z,5.54
2023-02-13T18:13:20.210Z,5.53
2023-02-13T18:15:47.273Z,5.52
2023-02-13T18:18:17.197Z,5.51
2023-02-13T18:20:44.356Z,5.43
2023-02-13T18:23:11.301Z,5.49
2023-02-13T18:25:38.032Z,5.49
2023-02-13T18:28:04.795Z,5.48
2023-02-13T18:30:31.789Z,5.47
2023-02-13T18:33:12.858Z,5.47
2023-02-13T18:35:39.800Z,5.45
2023-02-13T18:38:06.424Z,5.45
2023-02-13T18:40:33.538Z,5.44
2023-02-13T18:43:00.656Z,5.43
2023-02-13T18:45:28.197Z,5.42
2023-02-13T18:47:55.451Z,5.41
2023-02-13T18:50:22.928Z,5.39
2023-02-13T18:52:49.959Z,5.38
2023-02-13T18:55:17.025Z,5.38
2023-02-13T18:57:44.963Z,5.36
2023-02-13T19:00:14.199Z,5.36
2023-02-13T19:02:40.930Z,5.35
2023-02-13T19:05:08.224Z,5.34
2023-02-13T19:07:36.540Z,5.33
2023-02-13T19:10:03.915Z,5.31
2023-02-13T19:12:30.774Z,5.32
2023-02-13T19:14:57.300Z,5.29
2023-02-13T19:17:25.465Z,5.28
2023-02-13T19:20:03.612Z,5.19
2023-02-13T19:22:30.427Z,5.26
2023-02-13T19:24:57.136Z,5.26
2023-02-13T19:27:23.950Z,5.25
2023-02-13T19:29:51.149Z,5.25
2023-02-13T19:32:18.101Z,5.24
2023-02-13T19:34:45.439Z,5.24
2023-02-13T19:37:12.363Z,5.23
2023-02-13T19:39:39.296Z,5.23
2023-02-13T19:42:06.097Z,5.22
2023-02-13T19:44:32.901Z,5.21
2023-02-13T19:46:59.600Z,5.20
2023-02-13T19:49:37.076Z,5.19
2023-02-13T19:52:04.084Z,5.18
2023-02-13T19:55:13.453Z,5.18
2023-02-13T19:57:59.364Z,5.18
2023-02-13T20:00:39.866Z,5.08
2023-02-13T20:03:08.734Z,5.16
2023-02-13T20:05:41.154Z,5.16
2023-02-13T20:08:07.789Z,5.15
2023-02-13T20:10:34.700Z,5.15
2023-02-13T20:13:03.187Z,5.14
2023-02-13T20:15:32.276Z,5.14
2023-02-13T20:17:59.365Z,5.13
2023-02-13T20:20:27.526Z,5.13
2023-02-13T20:22:54.159Z,5.13
2023-02-13T20:25:22.484Z,5.13
2023-02-13T20:27:49.207Z,5.12
2023-02-13T20:30:16.225Z,5.13
2023-02-13T20:32:43.533Z,5.12
2023-02-13T20:35:10.436Z,5.12
2023-02-13T20:37:37.277Z,5.01
2023-02-13T20:40:05.039Z,5.12
2023-02-13T20:42:33.184Z,5.11
2023-02-13T20:45:00.461Z,5.11
2023-02-13T20:47:28.178Z,5.10
2023-02-13T20:50:03.565Z,5.10
2023-02-13T20:52:30.747Z,5.10
2023-02-13T20:54:58.598Z,5.09
2023-02-13T20:57:25.507Z,5.09
2023-02-13T20:59:52.501Z,5.09
2023-02-13T21:02:20.354Z,5.08
2023-02-13T21:07:33.103Z,5.06
2023-02-13T21:10:31.591Z,5.05
2023-02-13T21:12:58.530Z,5.04
2023-02-13T21:15:27.646Z,5.02
2023-02-13T21:17:54.379Z,5.01
2023-02-13T21:20:30.038Z,5.00
2023-02-13T21:22:58.956Z,4.98
2023-02-13T21:25:25.838Z,4.97
2023-02-13T21:27:52.575Z,4.95
2023-02-13T21:30:19.312Z,4.94
2023-02-13T21:32:46.046Z,4.93
2023-02-13T21:35:12.713Z,4.92
2023-02-13T21:37:46.254Z,4.91
2023-02-13T21:40:13.200Z,4.90
2023-02-13T21:42:40.229Z,4.83
2023-02-13T21:45:08.531Z,4.79
2023-02-13T21:47:37.900Z,4.88
2023-02-13T21:50:06.234Z,4.87
2023-02-13T21:52:34.484Z,4.86
2023-02-13T21:55:01.745Z,4.85
2023-02-13T21:57:28.523Z,4.84
2023-02-13T21:59:56.547Z,4.84
2023-02-13T22:02:26.350Z,4.84
2023-02-13T22:04:53.303Z,4.83
2023-02-13T22:07:19.814Z,4.83
2023-02-13T22:09:49.243Z,4.83
2023-02-13T22:12:16.021Z,4.82
2023-02-13T22:14:42.625Z,4.81
2023-02-13T22:17:09.724Z,4.80
2023-02-13T22:19:36.581Z,4.80
2023-02-13T22:22:03.184Z,4.79
2023-02-13T22:24:30.570Z,4.78
2023-02-13T22:26:57.653Z,4.77
2023-02-13T22:29:26.384Z,4.78
2023-02-13T22:31:53.525Z,4.78
2023-02-13T22:34:20.461Z,4.78
2023-02-13T22:36:47.052Z,4.78
2023-02-13T22:39:13.949Z,4.78
2023-02-13T22:41:41.785Z,4.77
2023-02-13T22:44:08.384Z,4.77
2023-02-13T22:46:36.788Z,4.77
2023-02-13T22:49:03.686Z,4.77
2023-02-13T22:51:36.453Z,4.76
2023-02-13T22:54:04.307Z,4.76
2023-02-13T22:56:33.008Z,4.76
2023-02-13T22:59:00.104Z,4.78
2023-02-13T23:01:27.923Z,4.78
2023-02-13T23:03:55.389Z,4.79
2023-02-13T23:06:23.380Z,4.78
2023-02-13T23:08:52.941Z,4.78
2023-02-13T23:11:41.762Z,4.78
2023-02-13T23:14:09.624Z,4.78
2023-02-13T23:16:57.609Z,4.78
2023-02-13T23:19:26.841Z,4.70
2023-02-13T23:21:53.403Z,4.77
2023-02-13T23:24:20.013Z,4.76
2023-02-13T23:26:46.779Z,4.68
2023-02-13T23:29:13.457Z,4.76
2023-02-13T23:31:40.402Z,4.75
2023-02-13T23:34:07.612Z,4.75
2023-02-13T23:36:34.516Z,4.75
2023-02-13T23:39:01.498Z,4.75
2023-02-13T23:41:28.213Z,4.75
2023-02-13T23:43:55.234Z,4.76
2023-02-13T23:46:22.156Z,4.75
2023-02-13T23:48:48.950Z,4.75
2023-02-13T23:51:16.225Z,4.76
2023-02-13T23:53:42.995Z,4.75
2023-02-13T23:56:09.841Z,4.75
2023-02-13T23:58:36.454Z,4.75
